Odenburg, Louisiana
Current Conditions -  °F | °C
As of 7:15 AM on Thursday 27 Nov 2014 (Local Time) from KHZR Reporting Station
Clear Clear  
Wind Chill: 40°   Ceiling: Unl
Heat Index: 43°   Visibility: 10mi
Dew Point: 36°   Wind: 5mph
Humidity: 78%   Direction: 340°NNW
Pressure: 30.44"   Gusts: NA
Location:  30.9317°N, 91.8606°W
Report Text: KHZR 271315Z AUTO 34004KT 10SM CLR 06/02 A3044 RMK AO2 T00600024
Loading
Personal Weather Stations






























Interactive Weather Map New forecast layout! Learn more

10-Day Weather Forecast

Advertisements
Track Severe Weather on mobile